»·PEaware :: N145VF KGJT-KAPA

N145VF :: KGJT-KAPA

FLIGHT INFORMATION

Flight Status: Arrived
Operator: Privately registered:
United States
More flights under this callsign
Pilot: Adam K. (2650)
Aircraft: Unknown
(VIPJ)
More flights by this aircraft type
Origin: KGJT Walker
United States
Destination: KAPA Centennial
United States
More flights between these airports :: More routes between these airports
Route:
File this flight plan on PilotEdge
Remarks:
Altitude:
(Current/Filed)
17,500ft
Speed:
(Current/Filed)
425kts
Departed: 31-Aug-17 10:46 AM
Arrived: 31-Aug-17 11:24 AM
Distance/Time
Traveled:
173nm/0:37
Distance/Time
To Go:
Arrived

Flight Plot

Page will automatically refresh every two minutes.

Flight plan parsing failed; only flown route is shown


Map Options




Map Legend


Flown Route
Filed Route
Departure Airport
Arrival Airport
Navaid (VOR, NDB)
Fix

Horizontal Profiles

Position Reports

Time Latitude Longitude Heading Altitude Ground
Speed
31-Aug-17 10:35 39.119096 -108.521326 127 4861ft 0kts
31-Aug-17 10:36 39.119096 -108.521326 127 4861ft 0kts
31-Aug-17 10:37 39.119096 -108.521326 127 4861ft 0kts
31-Aug-17 10:38 39.119096 -108.521326 127 4861ft 0kts
31-Aug-17 10:39 39.119096 -108.521326 127 4861ft 0kts
31-Aug-17 10:40 39.119096 -108.521326 127 4861ft 0kts
31-Aug-17 10:41 39.119096 -108.521326 127 4861ft 0kts
31-Aug-17 10:42 39.119096 -108.521326 127 4861ft 0kts
31-Aug-17 10:43 39.119096 -108.521326 127 4861ft 0kts
31-Aug-17 10:44 39.119096 -108.521326 127 4861ft 0kts
31-Aug-17 10:45 39.119096 -108.521326 127 4861ft 0kts
31-Aug-17 10:46 39.117784 -108.520854 202 4861ft 9kts
31-Aug-17 10:47 39.119482 -108.519775 37 4861ft 22kts
31-Aug-17 10:48 39.118246 -108.516341 125 4861ft 0kts
31-Aug-17 10:49 39.118818 -108.514922 306 4861ft 18kts
31-Aug-17 10:50 39.137582 -108.551323 298 5682ft 197kts
31-Aug-17 10:51 39.159490 -108.626159 276 8596ft 255kts
31-Aug-17 10:52 39.214406 -108.639131 54 12277ft 277kts
31-Aug-17 10:53 39.227317 -108.543121 86 15360ft 290kts
31-Aug-17 10:54 39.234586 -108.438455 86 17399ft 332kts
31-Aug-17 10:55 39.243280 -108.310710 86 17394ft 408kts
31-Aug-17 10:56 39.253297 -108.160875 86 17395ft 445kts
31-Aug-17 10:57 39.263661 -108.002777 86 17413ft 452kts
31-Aug-17 10:58 39.273686 -107.846452 86 17432ft 446kts
31-Aug-17 10:59 39.283241 -107.694228 86 17440ft 444kts
31-Aug-17 11:00 39.292746 -107.539509 86 17441ft 443kts
31-Aug-17 11:01 39.302043 -107.384830 86 17505ft 441kts
31-Aug-17 11:02 39.311033 -107.231916 87 17576ft 441kts
31-Aug-17 11:03 39.319885 -107.077816 87 17577ft 441kts
31-Aug-17 11:04 39.328483 -106.923791 86 17577ft 442kts
31-Aug-17 11:05 39.336939 -106.769783 85 17619ft 441kts
31-Aug-17 11:06 39.345232 -106.615203 85 17714ft 440kts
31-Aug-17 11:07 39.347882 -106.461145 106 17709ft 441kts
31-Aug-17 11:08 39.298056 -106.324532 115 17760ft 441kts
31-Aug-17 11:09 39.248597 -106.184142 115 17760ft 441kts
31-Aug-17 11:10 39.199098 -106.044190 115 17754ft 441kts
31-Aug-17 11:11 39.157406 -105.926827 115 17684ft 443kts
31-Aug-17 11:12 39.098989 -105.763171 115 17642ft 442kts
31-Aug-17 11:13 39.049289 -105.624652 115 17642ft 442kts
31-Aug-17 11:14 39.003893 -105.483168 96 17361ft 446kts
31-Aug-17 11:15 39.041912 -105.374505 43 15664ft 403kts
31-Aug-17 11:16 39.115453 -105.283113 42 14989ft 326kts
31-Aug-17 11:17 39.177896 -105.204564 53 14996ft 328kts
31-Aug-17 11:18 39.190250 -105.092697 89 14032ft 317kts
31-Aug-17 11:19 39.176320 -104.968071 103 12360ft 303kts
31-Aug-17 11:20 39.187134 -104.894014 69 11666ft 281kts
31-Aug-17 11:21 39.236429 -104.837315 3 10967ft 244kts
31-Aug-17 11:22 39.309252 -104.839058 359 9021ft 292kts
31-Aug-17 11:23 39.383194 -104.842248 359 8286ft 266kts
31-Aug-17 11:24 39.438980 -104.844812 0 8023ft 153kts
31-Aug-17 11:25 39.474590 -104.846436 1 7540ft 127kts
31-Aug-17 11:26 39.509024 -104.848017 1 6875ft 127kts
31-Aug-17 11:27 39.543576 -104.849607 0 6194ft 127kts
31-Aug-17 11:28 39.566584 -104.850264 23 5886ft 30kts
31-Aug-17 11:29 39.569180 -104.848108 1 5886ft 0kts
31-Aug-17 11:30 39.569180 -104.848108 1 5886ft 0kts

Navigation Log

Ident Type
Flight plan parsing failed, navigation log unavailable